createdAt,value
2019-01-27T00:14:37.370Z,95.90
2019-01-27T01:09:56.581Z,95.90
2019-01-27T01:14:30.574Z,96.00
2019-01-27T01:18:50.484Z,95.90
2019-01-27T01:23:25.330Z,96.00
2019-01-27T01:32:28.777Z,95.70
2019-01-27T01:36:52.236Z,95.60
2019-01-27T01:41:47.754Z,95.60
2019-01-27T01:51:16.495Z,95.50
2019-01-27T02:00:55.697Z,95.70
2019-01-27T02:10:28.349Z,95.70
2019-01-27T02:14:01.505Z,95.70
2019-01-27T02:15:28.952Z,95.90
2019-01-27T02:34:58.267Z,95.80
2019-01-27T02:39:43.459Z,95.80
2019-01-27T02:44:21.125Z,95.70
2019-01-27T02:48:41.170Z,95.60
2019-01-27T02:52:59.625Z,95.70
2019-01-27T02:57:24.923Z,95.50
2019-01-27T03:01:55.638Z,95.50
2019-01-27T03:11:13.641Z,95.30
2019-01-27T03:15:37.408Z,95.30
2019-01-27T03:20:04.563Z,95.60
2019-01-27T03:24:26.905Z,95.50
2019-01-27T03:29:01.813Z,95.50
2019-01-27T03:33:28.235Z,95.50
2019-01-27T03:38:07.670Z,95.40
2019-01-27T03:47:17.745Z,95.50
2019-01-27T03:55:58.966Z,95.40
2019-01-27T04:00:25.984Z,95.40
2019-01-27T04:04:43.624Z,95.00
2019-01-27T04:09:02.000Z,94.90
2019-01-27T04:13:28.413Z,94.70
2019-01-27T04:17:47.990Z,94.60
2019-01-27T04:22:23.464Z,94.60
2019-01-27T04:26:39.862Z,94.50
2019-01-27T04:30:56.711Z,94.60
2019-01-27T04:35:21.007Z,94.70
2019-01-27T04:39:39.340Z,94.50
2019-01-27T04:44:02.158Z,94.50
2019-01-27T04:48:21.350Z,94.40
2019-01-27T04:52:59.941Z,94.20
2019-01-27T04:57:21.353Z,94.20
2019-01-27T05:01:41.282Z,94.30
2019-01-27T05:06:00.799Z,94.40
2019-01-27T05:10:18.648Z,94.40
2019-01-27T05:14:35.116Z,94.30
2019-01-27T05:18:55.986Z,94.40
2019-01-27T05:23:16.030Z,94.20
2019-01-27T05:27:32.762Z,94.20
2019-01-27T05:31:49.907Z,94.20
2019-01-27T05:36:06.333Z,94.20
2019-01-27T05:40:22.816Z,94.30
2019-01-27T05:44:39.587Z,94.10
2019-01-27T05:48:56.062Z,94.10
2019-01-27T05:53:12.441Z,94.20
2019-01-27T05:57:28.877Z,94.10
2019-01-27T06:01:45.330Z,94.10
2019-01-27T06:06:01.766Z,94.30
2019-01-27T06:10:18.156Z,94.20
2019-01-27T06:14:34.586Z,94.20
2019-01-27T06:18:50.987Z,94.30
2019-01-27T06:23:07.411Z,94.40
2019-01-27T06:27:23.823Z,94.10
2019-01-27T06:31:40.263Z,94.10
2019-01-27T06:35:56.650Z,94.40
2019-01-27T06:40:13.081Z,94.20
2019-01-27T06:44:29.785Z,94.30
2019-01-27T06:48:46.213Z,94.30
2019-01-27T06:53:02.648Z,94.30
2019-01-27T06:57:19.079Z,94.50
2019-01-27T07:01:40.457Z,94.40
2019-01-27T07:05:58.771Z,94.30
2019-01-27T07:10:31.649Z,94.30
2019-01-27T07:14:52.949Z,94.40
2019-01-27T07:19:28.918Z,94.30
2019-01-27T07:24:05.793Z,94.30
2019-01-27T07:28:39.130Z,94.10
2019-01-27T07:33:06.175Z,94.00
2019-01-27T07:37:27.280Z,93.80
2019-01-27T07:41:48.664Z,93.40
2019-01-27T07:46:13.153Z,93.40
2019-01-27T07:50:31.557Z,93.30
2019-01-27T07:55:06.672Z,93.10
2019-01-27T07:59:25.315Z,93.00
2019-01-27T08:03:43.651Z,92.80
2019-01-27T08:08:19.896Z,93.00
2019-01-27T08:12:47.149Z,93.00
2019-01-27T08:17:11.545Z,92.90
2019-01-27T08:21:35.875Z,92.70
2019-01-27T08:26:00.193Z,92.70
2019-01-27T08:30:21.239Z,92.80
2019-01-27T08:34:39.904Z,92.90
2019-01-27T08:39:07.058Z,93.00
2019-01-27T08:43:25.414Z,92.80
2019-01-27T08:47:42.075Z,92.40
2019-01-27T08:51:58.749Z,91.90
2019-01-27T08:56:15.196Z,91.70
2019-01-27T09:00:33.828Z,91.90
2019-01-27T09:04:55.782Z,92.00
2019-01-27T09:09:18.400Z,92.00
2019-01-27T09:13:52.748Z,91.90
2019-01-27T09:18:26.986Z,91.70
2019-01-27T09:22:57.723Z,91.80
2019-01-27T09:27:20.495Z,91.90
2019-01-27T09:31:41.682Z,91.50
2019-01-27T09:36:00.018Z,91.40
2019-01-27T09:40:33.555Z,91.30
2019-01-27T09:44:51.880Z,91.30
2019-01-27T09:49:10.207Z,91.40
2019-01-27T09:53:28.532Z,91.00
2019-01-27T09:57:49.830Z,90.90
2019-01-27T10:02:08.446Z,91.00
2019-01-27T10:06:26.770Z,90.70
2019-01-27T10:10:45.630Z,90.60
2019-01-27T10:15:22.588Z,90.20
2019-01-27T10:19:42.019Z,90.10
2019-01-27T10:24:07.492Z,90.00
2019-01-27T10:28:40.851Z,89.80
2019-01-27T10:33:09.278Z,89.40
2019-01-27T10:37:28.232Z,89.40
2019-01-27T10:41:49.647Z,89.40
2019-01-27T10:46:11.013Z,89.60
2019-01-27T10:50:47.704Z,88.70
2019-01-27T10:55:15.048Z,88.80
2019-01-27T10:59:39.113Z,89.00
2019-01-27T11:04:06.161Z,88.70
2019-01-27T11:08:26.151Z,88.60
2019-01-27T11:12:59.386Z,88.50
2019-01-27T11:17:20.696Z,88.10
2019-01-27T11:21:42.098Z,88.30
2019-01-27T11:26:03.416Z,88.70
2019-01-27T11:30:21.752Z,89.60
2019-01-27T11:34:54.735Z,89.70
2019-01-27T11:39:16.127Z,90.10
2019-01-27T11:43:50.815Z,90.20
2019-01-27T11:48:09.125Z,89.60
2019-01-27T11:52:25.982Z,89.10
2019-01-27T11:56:47.506Z,88.40
2019-01-27T12:01:05.091Z,88.90
2019-01-27T12:05:21.509Z,88.40
2019-01-27T12:09:37.966Z,87.80
2019-01-27T12:13:54.664Z,87.10
2019-01-27T12:18:13.797Z,87.20
2019-01-27T12:22:30.135Z,86.70
2019-01-27T12:26:48.792Z,88.00
2019-01-27T12:31:07.946Z,88.20
2019-01-27T12:35:27.328Z,89.10
2019-01-27T12:39:46.963Z,89.70
2019-01-27T12:44:03.421Z,90.10
2019-01-27T12:48:20.490Z,90.00
2019-01-27T12:52:36.911Z,89.80
2019-01-27T12:56:54.200Z,88.70
2019-01-27T13:01:17.678Z,86.70
2019-01-27T13:05:34.138Z,87.20
2019-01-27T13:09:50.641Z,85.30
2019-01-27T13:14:07.119Z,83.80
2019-01-27T13:18:25.513Z,82.80
2019-01-27T13:22:43.017Z,84.20
2019-01-27T13:26:59.664Z,84.90
2019-01-27T13:31:18.702Z,86.20
2019-01-27T13:35:38.892Z,86.90
2019-01-27T13:39:54.149Z,88.20
2019-01-27T13:44:10.693Z,88.30
2019-01-27T13:48:27.096Z,85.80
2019-01-27T13:52:43.802Z,84.80
2019-01-27T13:57:00.535Z,85.70
2019-01-27T14:01:17.017Z,86.20
2019-01-27T14:05:33.508Z,86.10
2019-01-27T14:09:50.607Z,85.40
2019-01-27T14:14:07.166Z,85.70
2019-01-27T14:18:25.168Z,85.80
2019-01-27T14:22:42.182Z,87.40
2019-01-27T14:26:58.915Z,88.70
2019-01-27T14:31:21.990Z,88.40
2019-01-27T14:35:38.746Z,89.10
2019-01-27T14:39:55.735Z,89.30
2019-01-27T14:44:12.271Z,89.80
2019-01-27T14:48:28.799Z,89.60
2019-01-27T14:52:47.326Z,90.20
2019-01-27T14:57:03.984Z,90.40
2019-01-27T15:01:20.467Z,90.20
2019-01-27T15:05:36.940Z,90.40
2019-01-27T15:09:53.469Z,90.10
2019-01-27T15:14:09.985Z,89.30
2019-01-27T15:18:26.540Z,89.60
2019-01-27T15:22:44.364Z,90.10
2019-01-27T15:27:02.934Z,90.30
2019-01-27T15:31:19.467Z,90.80
2019-01-27T15:35:35.954Z,90.80
2019-01-27T15:39:53.507Z,90.80
2019-01-27T15:44:11.130Z,91.20
2019-01-27T15:48:27.653Z,91.40
2019-01-27T15:52:44.298Z,91.60
2019-01-27T15:57:01.264Z,91.80
2019-01-27T16:01:18.491Z,92.20
2019-01-27T16:05:35.415Z,92.20
2019-01-27T16:09:52.084Z,92.30
2019-01-27T16:14:09.020Z,92.30
2019-01-27T16:18:25.661Z,92.80
2019-01-27T16:22:44.331Z,92.80
2019-01-27T16:27:01.304Z,93.20
2019-01-27T16:31:38.305Z,93.30
2019-01-27T16:35:55.814Z,93.50
2019-01-27T16:40:13.430Z,93.30
2019-01-27T16:44:29.967Z,93.30
2019-01-27T16:48:46.474Z,93.30
2019-01-27T16:53:02.974Z,93.10
2019-01-27T16:57:20.341Z,93.30
2019-01-27T17:01:39.103Z,93.50
2019-01-27T17:05:56.242Z,93.50
2019-01-27T17:10:15.812Z,93.90
2019-01-27T17:14:33.186Z,94.00
2019-01-27T17:18:50.843Z,93.90
2019-01-27T17:23:07.608Z,93.80
2019-01-27T17:27:26.246Z,93.60
2019-01-27T17:31:44.823Z,93.50
2019-01-27T17:36:01.602Z,93.50
2019-01-27T17:40:18.895Z,93.70
2019-01-27T17:44:36.598Z,93.70
2019-01-27T17:48:53.575Z,93.60
2019-01-27T17:53:11.965Z,93.60
2019-01-27T17:57:31.210Z,93.90
2019-01-27T18:02:07.845Z,93.80
2019-01-27T18:06:42.075Z,93.70
2019-01-27T18:11:01.593Z,93.40
2019-01-27T18:15:30.927Z,93.20
2019-01-27T18:19:47.605Z,93.40
2019-01-27T18:24:04.132Z,93.70
2019-01-27T18:28:21.371Z,93.60
2019-01-27T18:32:42.845Z,93.60
2019-01-27T18:37:13.200Z,93.20
2019-01-27T18:41:29.983Z,93.40
2019-01-27T18:45:46.986Z,93.20
2019-01-27T18:50:10.088Z,93.00
2019-01-27T18:54:32.416Z,93.20
2019-01-27T18:58:54.108Z,93.20
2019-01-27T19:03:12.876Z,93.50
2019-01-27T19:07:31.716Z,93.70
2019-01-27T19:11:50.520Z,93.50
2019-01-27T19:16:18.202Z,93.50
2019-01-27T19:20:39.525Z,93.60
2019-01-27T19:25:06.280Z,93.70
2019-01-27T19:29:44.667Z,93.40
2019-01-27T19:34:09.846Z,93.30
2019-01-27T19:38:32.176Z,93.80
2019-01-27T19:42:56.421Z,93.40
2019-01-27T19:47:15.130Z,93.30
2019-01-27T19:51:44.382Z,93.60
2019-01-27T19:56:11.845Z,93.80
2019-01-27T20:00:47.712Z,93.80
2019-01-27T20:05:25.064Z,93.70
2019-01-27T20:10:01.630Z,93.70
2019-01-27T20:14:35.159Z,93.80
2019-01-27T20:18:58.666Z,93.70
2019-01-27T20:23:25.565Z,93.60
2019-01-27T20:27:47.711Z,93.60
2019-01-27T20:32:11.355Z,93.50
2019-01-27T20:36:30.896Z,93.40
2019-01-27T20:40:52.490Z,93.30
2019-01-27T20:45:16.127Z,93.20
2019-01-27T20:49:46.408Z,93.40
2019-01-27T20:54:07.952Z,93.30
2019-01-27T20:58:34.081Z,93.00
2019-01-27T21:03:11.928Z,92.90
2019-01-27T21:07:30.277Z,92.80
2019-01-27T21:12:05.365Z,92.90
2019-01-27T21:16:30.078Z,92.80
2019-01-27T21:20:53.290Z,92.90
2019-01-27T21:25:09.322Z,92.90
2019-01-27T21:29:25.776Z,92.50
2019-01-27T21:33:42.456Z,92.30
2019-01-27T21:37:58.912Z,92.20
2019-01-27T21:42:15.491Z,91.90
2019-01-27T21:46:33.900Z,91.90
2019-01-27T21:50:50.339Z,92.00
2019-01-27T21:55:07.809Z,92.10
2019-01-27T21:59:24.546Z,91.80
2019-01-27T22:03:40.971Z,91.70
2019-01-27T22:07:57.412Z,91.40
2019-01-27T22:12:14.897Z,91.30
2019-01-27T22:16:32.319Z,91.10
2019-01-27T22:20:50.043Z,91.30
2019-01-27T22:25:09.479Z,91.40
2019-01-27T22:29:25.967Z,91.20
2019-01-27T22:33:44.828Z,91.10
2019-01-27T22:38:01.526Z,91.20
2019-01-27T22:42:17.971Z,91.20
2019-01-27T22:46:34.402Z,91.10
2019-01-27T22:50:50.815Z,91.00
2019-01-27T22:55:08.465Z,90.90
2019-01-27T22:59:25.197Z,90.80
2019-01-27T23:03:41.654Z,90.70
2019-01-27T23:07:58.076Z,90.60
2019-01-27T23:12:14.559Z,90.90
2019-01-27T23:16:32.896Z,90.60
2019-01-27T23:20:49.725Z,90.70
2019-01-27T23:25:07.637Z,90.80
2019-01-27T23:29:24.078Z,90.70
2019-01-27T23:33:40.495Z,90.90
2019-01-27T23:37:58.916Z,91.00
2019-01-27T23:42:15.646Z,91.40
2019-01-27T23:46:32.100Z,91.70
2019-01-27T23:50:50.682Z,91.70
2019-01-27T23:59:40.391Z,91.90
